createdAt,value
2022-07-25T00:01:20.623Z,24.23
2022-07-25T00:03:48.879Z,24.20
2022-07-25T00:06:17.855Z,24.15
2022-07-25T00:08:46.040Z,24.11
2022-07-25T00:11:13.990Z,24.15
2022-07-25T00:13:42.559Z,24.13
2022-07-25T00:16:21.310Z,24.23
2022-07-25T00:18:49.673Z,24.17
2022-07-25T00:21:17.964Z,24.14
2022-07-25T00:23:45.938Z,24.13
2022-07-25T00:26:14.530Z,24.09
2022-07-25T00:28:42.557Z,24.09
2022-07-25T00:31:11.269Z,24.06
2022-07-25T00:33:41.249Z,24.01
2022-07-25T00:36:10.038Z,23.93
2022-07-25T00:38:37.931Z,23.82
2022-07-25T00:41:06.574Z,23.77
2022-07-25T00:43:35.827Z,23.73
2022-07-25T00:46:03.980Z,23.70
2022-07-25T00:48:32.466Z,23.70
2022-07-25T00:51:01.989Z,23.62
2022-07-25T00:53:30.060Z,23.50
2022-07-25T00:55:58.878Z,23.39
2022-07-25T00:58:26.943Z,23.32
2022-07-25T01:00:55.037Z,23.21
2022-07-25T01:03:23.242Z,23.18
2022-07-25T01:05:53.890Z,23.17
2022-07-25T01:08:23.983Z,23.15
2022-07-25T01:10:51.905Z,23.12
2022-07-25T01:13:20.901Z,23.11
2022-07-25T01:15:49.010Z,23.11
2022-07-25T01:18:17.077Z,23.11
2022-07-25T01:20:46.633Z,23.12
2022-07-25T01:23:14.658Z,23.11
2022-07-25T01:25:42.789Z,22.99
2022-07-25T01:28:10.897Z,22.98
2022-07-25T01:30:38.878Z,22.96
2022-07-25T01:33:07.319Z,22.88
2022-07-25T01:35:37.980Z,22.76
2022-07-25T01:38:10.947Z,22.74
2022-07-25T01:40:39.371Z,22.67
2022-07-25T01:43:08.002Z,22.65
2022-07-25T01:45:36.112Z,22.59
2022-07-25T01:48:04.280Z,22.58
2022-07-25T01:50:32.214Z,22.67
2022-07-25T01:53:00.125Z,22.70
2022-07-25T01:55:29.939Z,22.74
2022-07-25T01:57:59.548Z,22.81
2022-07-25T02:00:27.652Z,22.82
2022-07-25T02:03:09.662Z,22.83
2022-07-25T02:05:37.741Z,22.87
2022-07-25T02:08:06.013Z,22.83
2022-07-25T02:10:35.267Z,22.84
2022-07-25T02:13:03.759Z,22.85
2022-07-25T02:15:32.033Z,22.78
2022-07-25T02:17:59.978Z,22.78
2022-07-25T02:20:28.077Z,22.82
2022-07-25T02:22:56.269Z,22.78
2022-07-25T02:25:24.210Z,22.72
2022-07-25T02:27:53.566Z,22.50
2022-07-25T02:30:21.470Z,22.39
2022-07-25T02:32:49.428Z,22.50
2022-07-25T02:35:17.329Z,22.63
2022-07-25T02:37:45.452Z,22.62
2022-07-25T02:40:13.742Z,22.58
2022-07-25T02:42:41.761Z,22.47
2022-07-25T02:45:12.270Z,22.45
2022-07-25T02:47:40.227Z,22.49
2022-07-25T02:50:09.166Z,22.54
2022-07-25T02:52:42.657Z,22.56
2022-07-25T02:55:11.730Z,22.48
2022-07-25T02:57:39.919Z,22.42
2022-07-25T03:00:09.100Z,22.26
2022-07-25T03:02:38.665Z,22.13
2022-07-25T03:05:08.276Z,22.19
2022-07-25T03:07:37.187Z,22.27
2022-07-25T03:10:08.883Z,22.28
2022-07-25T03:12:40.562Z,22.31
2022-07-25T03:15:10.153Z,22.29
2022-07-25T03:17:39.832Z,22.17
2022-07-25T03:20:08.636Z,22.06
2022-07-25T03:22:36.955Z,22.06
2022-07-25T03:25:05.537Z,21.95
2022-07-25T03:27:43.308Z,21.88
2022-07-25T03:30:12.693Z,21.77
2022-07-25T03:32:42.339Z,21.74
2022-07-25T03:35:10.901Z,21.68
2022-07-25T03:37:38.793Z,21.60
2022-07-25T03:40:08.200Z,21.64
2022-07-25T03:42:36.373Z,21.78
2022-07-25T03:45:04.872Z,21.88
2022-07-25T03:47:32.788Z,21.92
2022-07-25T03:50:02.437Z,21.93
2022-07-25T03:52:30.434Z,21.92
2022-07-25T03:54:58.322Z,21.80
2022-07-25T03:57:26.262Z,21.63
2022-07-25T03:59:54.157Z,21.57
2022-07-25T04:02:22.199Z,21.49
2022-07-25T04:04:50.094Z,21.50
2022-07-25T04:07:19.438Z,21.67
2022-07-25T04:09:47.385Z,21.61
2022-07-25T04:12:15.398Z,21.55
2022-07-25T04:14:43.305Z,21.59
2022-07-25T04:17:11.228Z,21.77
2022-07-25T04:19:39.373Z,21.89
2022-07-25T04:22:07.299Z,21.85
2022-07-25T04:24:36.619Z,21.69
2022-07-25T04:27:04.766Z,21.50
2022-07-25T04:29:32.831Z,21.46
2022-07-25T04:32:00.863Z,21.37
2022-07-25T04:34:28.917Z,21.27
2022-07-25T04:36:56.900Z,21.30
2022-07-25T04:39:24.799Z,21.41
2022-07-25T04:41:54.097Z,21.52
2022-07-25T04:44:22.047Z,21.62
2022-07-25T04:46:49.971Z,21.73
2022-07-25T04:49:18.071Z,21.88
2022-07-25T04:51:46.153Z,22.07
2022-07-25T04:54:14.089Z,22.20
2022-07-25T04:56:41.962Z,22.25
2022-07-25T04:59:11.261Z,22.33
2022-07-25T05:01:39.213Z,22.46
2022-07-25T05:04:07.582Z,22.62
2022-07-25T05:06:35.688Z,22.76
2022-07-25T05:09:03.668Z,22.82
2022-07-25T05:11:31.585Z,22.89
2022-07-25T05:13:59.562Z,22.97
2022-07-25T05:16:28.901Z,23.00
2022-07-25T05:18:56.831Z,22.90
2022-07-25T05:21:24.853Z,22.96
2022-07-25T05:23:52.749Z,23.01
2022-07-25T05:26:20.812Z,22.97
2022-07-25T05:28:48.729Z,23.04
2022-07-25T05:31:16.733Z,23.10
2022-07-25T05:33:46.084Z,23.13
2022-07-25T05:36:14.333Z,23.13
2022-07-25T05:38:42.259Z,23.19
2022-07-25T05:41:10.323Z,23.18
2022-07-25T05:43:38.250Z,23.13
2022-07-25T05:46:06.884Z,23.21
2022-07-25T05:48:34.857Z,22.91
2022-07-25T05:51:04.647Z,22.74
2022-07-25T05:53:32.675Z,22.51
2022-07-25T05:56:00.699Z,22.37
2022-07-25T05:58:30.026Z,22.31
2022-07-25T06:00:58.421Z,22.25
2022-07-25T06:03:26.803Z,22.20
2022-07-25T06:05:56.297Z,22.18
2022-07-25T06:08:28.559Z,22.24
2022-07-25T06:10:57.431Z,22.29
2022-07-25T06:13:25.903Z,22.39
2022-07-25T06:15:56.146Z,22.66
2022-07-25T06:18:26.118Z,22.85
2022-07-25T06:20:54.456Z,22.97
2022-07-25T06:23:22.753Z,23.02
2022-07-25T06:25:57.028Z,23.19
2022-07-25T06:28:25.009Z,23.38
2022-07-25T06:30:53.272Z,23.46
2022-07-25T06:33:21.519Z,23.49
2022-07-25T06:35:49.524Z,23.58
2022-07-25T06:38:17.486Z,23.76
2022-07-25T06:40:45.426Z,23.81
2022-07-25T06:43:14.913Z,23.71
2022-07-25T06:45:46.967Z,23.71
2022-07-25T06:48:14.928Z,23.81
2022-07-25T06:50:43.326Z,23.87
2022-07-25T06:53:11.329Z,23.91
2022-07-25T06:55:39.382Z,23.90
2022-07-25T06:58:07.314Z,23.86
2022-07-25T07:00:36.627Z,23.94
2022-07-25T07:03:05.018Z,24.03
2022-07-25T07:05:34.769Z,24.12
2022-07-25T07:08:02.862Z,24.16
2022-07-25T07:10:31.106Z,24.20
2022-07-25T07:13:09.645Z,24.26
2022-07-25T07:15:39.937Z,24.29
2022-07-25T07:18:08.000Z,24.38
2022-07-25T07:20:36.345Z,24.52
2022-07-25T07:23:04.558Z,24.63
2022-07-25T07:25:34.257Z,24.72
2022-07-25T07:28:02.214Z,24.78
2022-07-25T07:30:52.483Z,24.83
2022-07-25T07:33:19.503Z,24.84
2022-07-25T07:35:47.503Z,24.96
2022-07-25T07:38:15.653Z,25.01
2022-07-25T07:40:43.581Z,25.03
2022-07-25T07:43:11.494Z,25.06
2022-07-25T07:45:39.402Z,25.09
2022-07-25T07:48:08.299Z,25.06
2022-07-25T07:50:37.800Z,25.11
2022-07-25T07:53:06.738Z,25.15
2022-07-25T07:55:45.975Z,25.15
2022-07-25T07:58:16.641Z,25.19
2022-07-25T08:00:46.388Z,25.23
2022-07-25T08:03:15.056Z,25.26
2022-07-25T08:05:45.974Z,25.32
2022-07-25T08:08:15.962Z,25.34
2022-07-25T08:10:45.780Z,25.39
2022-07-25T08:13:15.282Z,25.42
2022-07-25T08:15:44.162Z,25.44
2022-07-25T08:18:17.519Z,25.45
2022-07-25T08:20:48.580Z,25.50
2022-07-25T08:23:17.197Z,25.55
2022-07-25T08:25:46.280Z,25.49
2022-07-25T08:28:18.852Z,25.61
2022-07-25T08:30:47.300Z,25.70
2022-07-25T08:33:16.724Z,25.75
2022-07-25T08:35:49.641Z,25.79
2022-07-25T08:38:18.194Z,25.80
2022-07-25T08:40:46.734Z,25.88
2022-07-25T08:43:15.835Z,25.91
2022-07-25T08:45:47.189Z,25.93
2022-07-25T08:48:15.573Z,25.93
2022-07-25T08:50:44.132Z,25.95
2022-07-25T08:53:32.746Z,25.99
2022-07-25T08:56:05.297Z,26.03
2022-07-25T08:58:38.486Z,26.02
2022-07-25T09:01:07.095Z,26.00
2022-07-25T09:03:40.359Z,26.08
2022-07-25T09:06:16.929Z,26.15
2022-07-25T09:08:54.375Z,26.22
2022-07-25T09:11:33.625Z,26.27
2022-07-25T09:14:05.311Z,26.30
2022-07-25T09:16:35.403Z,26.34
2022-07-25T09:19:08.389Z,26.33
2022-07-25T09:21:36.427Z,26.36
2022-07-25T09:24:15.952Z,26.37
2022-07-25T09:26:49.175Z,26.41
2022-07-25T09:29:18.974Z,26.48
2022-07-25T09:31:47.162Z,26.54
2022-07-25T09:34:20.913Z,26.53
2022-07-25T09:36:55.072Z,26.55
2022-07-25T09:39:34.391Z,26.55
2022-07-25T09:42:02.598Z,26.59
2022-07-25T09:44:30.896Z,26.62
2022-07-25T09:46:59.877Z,26.64
2022-07-25T09:49:38.103Z,26.68
2022-07-25T09:52:07.463Z,26.72
2022-07-25T09:54:37.224Z,26.72
2022-07-25T09:57:05.535Z,26.74
2022-07-25T09:59:34.373Z,26.77
2022-07-25T10:02:09.391Z,26.86
2022-07-25T10:04:46.378Z,26.87
2022-07-25T10:07:17.426Z,26.89
2022-07-25T10:09:49.485Z,26.91
2022-07-25T10:12:21.125Z,26.94
2022-07-25T10:15:05.922Z,26.95
2022-07-25T10:17:34.216Z,26.98
2022-07-25T10:20:03.844Z,27.08
2022-07-25T10:22:58.081Z,27.06
2022-07-25T10:25:28.359Z,27.15
2022-07-25T10:28:02.893Z,27.20
2022-07-25T10:30:36.841Z,27.24
2022-07-25T10:33:06.945Z,27.33
2022-07-25T10:35:35.164Z,27.34
2022-07-25T10:38:05.771Z,27.34
2022-07-25T10:40:38.016Z,27.36
2022-07-25T10:43:10.893Z,27.38
2022-07-25T10:45:40.975Z,27.46
2022-07-25T10:48:22.170Z,27.52
2022-07-25T10:50:58.574Z,27.56
2022-07-25T10:53:33.356Z,27.55
2022-07-25T10:56:07.545Z,27.63
2022-07-25T10:58:47.054Z,27.62
2022-07-25T11:01:15.891Z,27.63
2022-07-25T11:03:45.652Z,27.54
2022-07-25T11:06:15.159Z,27.61
2022-07-25T11:08:43.985Z,27.63
2022-07-25T11:11:14.526Z,27.77
2022-07-25T11:13:44.412Z,27.87
2022-07-25T11:16:12.516Z,27.86
2022-07-25T11:18:42.615Z,27.85
2022-07-25T11:21:10.786Z,27.96
2022-07-25T11:23:38.732Z,27.96
2022-07-25T11:26:08.355Z,27.97
2022-07-25T11:28:46.419Z,27.96
2022-07-25T11:31:16.061Z,28.00
2022-07-25T11:33:47.530Z,28.01
2022-07-25T11:36:16.314Z,28.08
2022-07-25T11:38:49.183Z,28.16
2022-07-25T11:41:17.098Z,28.12
2022-07-25T11:43:50.949Z,28.23
2022-07-25T11:46:19.303Z,28.31
2022-07-25T11:48:48.163Z,28.36
2022-07-25T11:51:19.419Z,28.32
2022-07-25T11:53:49.814Z,28.34
2022-07-25T11:56:41.285Z,28.44
2022-07-25T11:59:10.036Z,28.59
2022-07-25T12:01:40.350Z,28.64
2022-07-25T12:04:14.224Z,28.67
2022-07-25T12:06:42.629Z,28.77
2022-07-25T12:09:18.943Z,28.82
2022-07-25T12:11:48.889Z,28.92
2022-07-25T12:14:18.492Z,29.05
2022-07-25T12:16:46.689Z,29.18
2022-07-25T12:19:22.782Z,29.23
2022-07-25T12:21:50.838Z,29.29
2022-07-25T12:24:18.938Z,29.35
2022-07-25T12:26:47.022Z,29.43
2022-07-25T12:29:15.017Z,29.53
2022-07-25T12:31:44.275Z,29.70
2022-07-25T12:34:12.255Z,29.80
2022-07-25T12:36:43.971Z,29.87
2022-07-25T12:42:25.823Z,30.03
2022-07-25T12:44:53.809Z,30.07
2022-07-25T12:47:24.105Z,30.14
2022-07-25T12:49:54.525Z,30.20
2022-07-25T12:52:23.075Z,30.24
2022-07-25T12:54:51.000Z,30.21
2022-07-25T12:57:20.661Z,30.32
2022-07-25T12:59:48.867Z,30.32
2022-07-25T13:02:16.869Z,30.51
2022-07-25T13:04:49.003Z,30.63
2022-07-25T13:07:17.467Z,30.80
2022-07-25T13:09:45.422Z,30.92
2022-07-25T13:12:16.372Z,31.00
2022-07-25T13:14:44.742Z,31.13
2022-07-25T13:17:12.832Z,31.26
2022-07-25T13:19:40.900Z,31.35
2022-07-25T13:22:10.385Z,31.36
2022-07-25T13:24:39.292Z,31.42
2022-07-25T13:27:07.664Z,31.47
2022-07-25T13:29:36.474Z,31.53
2022-07-25T13:32:04.533Z,31.68
2022-07-25T13:34:34.191Z,31.77
2022-07-25T13:37:02.369Z,31.90
2022-07-25T13:39:31.877Z,31.94
2022-07-25T13:41:59.879Z,31.97
2022-07-25T13:44:27.782Z,32.13
2022-07-25T13:46:55.656Z,32.22
2022-07-25T13:49:23.699Z,32.33
2022-07-25T13:51:51.910Z,32.36
2022-07-25T13:54:19.884Z,32.48
2022-07-25T13:56:49.258Z,32.59
2022-07-25T13:59:21.153Z,32.72
2022-07-25T14:01:50.475Z,32.86
2022-07-25T14:04:18.900Z,33.12
2022-07-25T14:06:51.691Z,33.24
2022-07-25T14:09:20.864Z,33.41
2022-07-25T14:11:50.114Z,33.56
2022-07-25T14:14:18.483Z,33.54
2022-07-25T14:16:46.590Z,33.50
2022-07-25T14:19:14.737Z,33.50
2022-07-25T14:21:42.796Z,33.60
2022-07-25T14:24:10.809Z,33.64
2022-07-25T14:26:39.285Z,33.76
2022-07-25T14:29:11.201Z,34.01
2022-07-25T14:31:40.838Z,34.15
2022-07-25T14:34:09.130Z,34.28
2022-07-25T14:36:37.262Z,34.32
2022-07-25T14:39:06.039Z,34.45
2022-07-25T14:41:35.055Z,34.46
2022-07-25T14:44:05.258Z,34.49
2022-07-25T14:46:35.680Z,34.66
2022-07-25T14:49:04.246Z,34.57
2022-07-25T14:51:32.983Z,34.60
2022-07-25T14:54:01.138Z,34.61
2022-07-25T14:56:30.822Z,34.59
2022-07-25T14:58:59.411Z,34.61
2022-07-25T15:01:33.365Z,34.74
2022-07-25T15:04:37.557Z,34.88
2022-07-25T15:07:17.351Z,34.91
2022-07-25T15:09:46.483Z,35.04
2022-07-25T15:12:16.758Z,35.02
2022-07-25T15:14:45.418Z,35.07
2022-07-25T15:17:13.997Z,35.07
2022-07-25T15:19:43.457Z,35.16
2022-07-25T15:22:11.523Z,35.31
2022-07-25T15:25:13.937Z,35.48
2022-07-25T15:27:28.005Z,35.54
2022-07-25T15:29:56.062Z,35.45
2022-07-25T15:32:24.152Z,35.48
2022-07-25T15:34:56.642Z,35.75
2022-07-25T15:37:24.857Z,35.86
2022-07-25T15:39:52.965Z,35.96
2022-07-25T15:42:22.646Z,36.03
2022-07-25T15:45:15.149Z,35.99
2022-07-25T15:47:43.423Z,35.84
2022-07-25T15:50:14.637Z,35.83
2022-07-25T15:52:42.780Z,35.93
2022-07-25T15:55:11.002Z,35.96
2022-07-25T15:57:39.443Z,36.00
2022-07-25T16:00:09.345Z,36.00
2022-07-25T16:02:37.459Z,35.95
2022-07-25T16:05:06.081Z,36.07
2022-07-25T16:07:35.749Z,36.03
2022-07-25T16:10:04.200Z,36.05
2022-07-25T16:12:32.230Z,36.16
2022-07-25T16:15:00.458Z,36.08
2022-07-25T16:17:28.690Z,35.99
2022-07-25T16:19:56.959Z,35.98
2022-07-25T16:22:25.339Z,35.92
2022-07-25T16:24:54.843Z,35.99
2022-07-25T16:27:23.233Z,36.09
2022-07-25T16:29:51.314Z,36.26
2022-07-25T16:32:20.782Z,36.13
2022-07-25T16:34:49.442Z,36.23
2022-07-25T16:37:17.548Z,36.35
2022-07-25T16:39:47.637Z,36.36
2022-07-25T16:42:17.053Z,36.39
2022-07-25T16:44:47.785Z,36.27
2022-07-25T16:47:16.150Z,35.93
2022-07-25T16:49:44.156Z,36.16
2022-07-25T16:52:12.206Z,36.12
2022-07-25T16:54:43.088Z,36.05
2022-07-25T16:57:11.909Z,36.04
2022-07-25T16:59:41.229Z,36.14
2022-07-25T17:02:09.796Z,36.15
2022-07-25T17:04:38.052Z,36.19
2022-07-25T17:07:06.181Z,36.07
2022-07-25T17:09:34.248Z,36.04
2022-07-25T17:12:02.264Z,36.03
2022-07-25T17:14:30.485Z,36.16
2022-07-25T17:17:00.005Z,36.27
2022-07-25T17:19:28.008Z,36.31
2022-07-25T17:21:55.942Z,36.22
2022-07-25T17:24:23.906Z,36.02
2022-07-25T17:26:52.024Z,35.85
2022-07-25T17:29:20.150Z,35.71
2022-07-25T17:31:48.417Z,35.59
2022-07-25T17:34:18.007Z,35.30
2022-07-25T17:36:46.115Z,35.31
2022-07-25T17:39:14.233Z,35.15
2022-07-25T17:41:42.317Z,35.05
2022-07-25T17:44:12.294Z,34.90
2022-07-25T17:46:40.585Z,34.69
2022-07-25T17:49:08.692Z,34.50
2022-07-25T17:51:38.320Z,34.22
2022-07-25T17:54:06.748Z,33.95
2022-07-25T17:56:35.057Z,33.62
2022-07-25T17:59:03.408Z,33.36
2022-07-25T18:01:31.383Z,33.06
2022-07-25T18:03:59.365Z,32.83
2022-07-25T18:06:29.881Z,32.58
2022-07-25T18:08:59.562Z,32.39
2022-07-25T18:11:27.838Z,32.25
2022-07-25T18:13:55.910Z,32.10
2022-07-25T18:16:24.331Z,31.95
2022-07-25T18:18:52.468Z,31.76
2022-07-25T18:21:20.700Z,31.65
2022-07-25T18:23:48.774Z,31.50
2022-07-25T18:26:19.083Z,31.36
2022-07-25T18:28:47.463Z,31.21
2022-07-25T18:31:15.744Z,31.09
2022-07-25T18:33:44.097Z,30.97
2022-07-25T18:36:12.381Z,30.81
2022-07-25T18:38:40.616Z,30.68
2022-07-25T18:43:58.769Z,30.62
2022-07-25T18:46:30.187Z,30.52
2022-07-25T18:49:18.565Z,30.36
2022-07-25T18:51:54.408Z,30.28
2022-07-25T18:54:22.657Z,30.30
2022-07-25T18:56:51.197Z,30.19
2022-07-25T18:59:21.134Z,30.05
2022-07-25T19:01:54.058Z,30.05
2022-07-25T19:04:22.517Z,30.07
2022-07-25T19:06:53.391Z,29.99
2022-07-25T19:09:24.225Z,29.75
2022-07-25T19:11:52.632Z,29.85
2022-07-25T19:14:24.014Z,29.79
2022-07-25T19:16:52.283Z,29.61
2022-07-25T19:19:20.621Z,29.62
2022-07-25T19:21:49.099Z,29.58
2022-07-25T19:24:17.900Z,29.56
2022-07-25T19:26:48.299Z,29.46
2022-07-25T19:29:18.057Z,29.41
2022-07-25T19:31:47.569Z,29.38
2022-07-25T19:34:15.631Z,29.37
2022-07-25T19:36:45.926Z,29.33
2022-07-25T19:39:14.313Z,29.23
2022-07-25T19:41:46.864Z,29.32
2022-07-25T19:44:15.579Z,29.28
2022-07-25T19:46:43.654Z,29.29
2022-07-25T19:49:13.368Z,29.23
2022-07-25T19:51:41.425Z,29.24
2022-07-25T19:54:09.987Z,29.14
2022-07-25T19:56:38.285Z,29.05
2022-07-25T19:59:06.258Z,29.06
2022-07-25T20:01:35.996Z,29.07
2022-07-25T20:04:05.663Z,29.06
2022-07-25T20:06:36.037Z,29.03
2022-07-25T20:09:05.352Z,29.08
2022-07-25T20:11:33.758Z,29.01
2022-07-25T20:14:02.124Z,29.03
2022-07-25T20:16:30.751Z,28.95
2022-07-25T20:19:00.240Z,28.93
2022-07-25T20:21:28.372Z,28.85
2022-07-25T20:23:58.246Z,28.78
2022-07-25T20:26:26.993Z,28.75
2022-07-25T20:28:55.252Z,28.68
2022-07-25T20:31:24.366Z,28.61
2022-07-25T20:33:53.150Z,28.50
2022-07-25T20:36:21.479Z,28.54
2022-07-25T20:38:49.485Z,28.53
2022-07-25T20:41:19.240Z,28.26
2022-07-25T20:43:47.211Z,28.00
2022-07-25T20:46:15.341Z,27.92
2022-07-25T20:48:43.472Z,28.03
2022-07-25T20:51:12.474Z,28.08
2022-07-25T20:53:41.800Z,28.10
2022-07-25T20:56:09.953Z,28.10
2022-07-25T20:58:39.241Z,27.89
2022-07-25T21:01:07.317Z,27.65
2022-07-25T21:03:36.600Z,27.58
2022-07-25T21:06:05.480Z,27.57
2022-07-25T21:08:33.657Z,27.66
2022-07-25T21:11:01.735Z,27.61
2022-07-25T21:13:30.862Z,27.43
2022-07-25T21:16:02.841Z,27.46
2022-07-25T21:18:30.948Z,27.42
2022-07-25T21:20:59.466Z,27.39
2022-07-25T21:23:27.702Z,27.50
2022-07-25T21:25:55.830Z,27.49
2022-07-25T21:28:24.035Z,27.49
2022-07-25T21:30:54.172Z,27.49
2022-07-25T21:33:23.525Z,27.45
2022-07-25T21:35:53.685Z,27.41
2022-07-25T21:38:26.702Z,27.17
2022-07-25T21:40:55.802Z,27.13
2022-07-25T21:43:24.180Z,27.10
2022-07-25T21:45:52.506Z,27.13
2022-07-25T21:48:40.746Z,27.16
2022-07-25T21:51:19.371Z,27.26
2022-07-25T21:53:51.679Z,27.33
2022-07-25T21:56:20.215Z,27.26
2022-07-25T21:58:48.898Z,27.28
2022-07-25T22:01:17.412Z,27.27
2022-07-25T22:03:45.442Z,27.13
2022-07-25T22:06:14.788Z,26.88
2022-07-25T22:08:42.712Z,26.49
2022-07-25T22:11:15.861Z,26.44
2022-07-25T22:13:48.931Z,26.36
2022-07-25T22:16:17.237Z,26.33
2022-07-25T22:18:45.243Z,26.40
2022-07-25T22:21:15.822Z,26.31
2022-07-25T22:23:44.144Z,26.25
2022-07-25T22:26:12.080Z,26.24
2022-07-25T22:28:40.060Z,26.20
2022-07-25T22:31:08.231Z,26.29
2022-07-25T22:33:38.151Z,26.41
2022-07-25T22:36:07.194Z,26.51
2022-07-25T22:38:36.833Z,26.54
2022-07-25T22:41:04.757Z,26.61
2022-07-25T22:43:57.040Z,26.67
2022-07-25T22:46:20.657Z,26.75
2022-07-25T22:48:48.594Z,26.86
2022-07-25T22:51:16.746Z,26.89
2022-07-25T22:53:46.106Z,26.94
2022-07-25T22:56:14.097Z,26.86
2022-07-25T22:58:42.101Z,26.81
2022-07-25T23:01:10.917Z,26.78
2022-07-25T23:03:38.930Z,26.72
2022-07-25T23:06:07.242Z,26.79
2022-07-25T23:08:35.125Z,26.77
2022-07-25T23:11:06.092Z,26.78
2022-07-25T23:13:34.341Z,26.83
2022-07-25T23:16:03.222Z,26.86
2022-07-25T23:18:31.647Z,26.87
2022-07-25T23:21:00.049Z,26.84
2022-07-25T23:23:28.396Z,26.67
2022-07-25T23:25:56.397Z,26.66
2022-07-25T23:28:25.671Z,26.65
2022-07-25T23:30:53.640Z,26.61
2022-07-25T23:33:25.311Z,26.55
2022-07-25T23:35:54.032Z,26.34
2022-07-25T23:38:22.558Z,26.31
2022-07-25T23:40:50.698Z,26.39
2022-07-25T23:43:47.249Z,26.44
2022-07-25T23:46:08.079Z,26.49
2022-07-25T23:48:36.169Z,26.54
2022-07-25T23:51:04.249Z,26.50
2022-07-25T23:53:34.838Z,26.48
2022-07-25T23:56:02.759Z,26.12
2022-07-25T23:58:30.632Z,26.11
